Time;durP1;ratioP1;P1;durP2;ratioP2;P2;SDS_P1;SDS_P2;PMS_P1;PMS_P2;Temp;Humidity;BMP_temperature;BMP_pressure;BME280_temperature;BME280_humidity;BME280_pressure;Samples;Min_cycle;Max_cycle;Signal;HPM_P1;HPM_P2
2022/02/01 00:02:03;;;;;;;149.88;61.03;;;;;;;3.20;51.50;93824.56;4989585;28;20432;-76
2022/02/01 00:04:37;;;;;;;167.23;69.00;;;;;;;3.25;51.82;93837.56;4951539;28;20485;-76
2022/02/01 00:09:42;;;;;;;156.60;64.38;;;;;;;3.36;51.76;93836.88;4952176;28;20069;-76
2022/02/01 00:41:30;;;;;;;207.95;88.47;;;;;;;3.54;52.67;93806.06;4971119;28;20138;-77
2022/02/01 00:43:55;;;;;;;179.43;79.05;;;;;;;3.55;52.25;93802.50;4972356;28;20031;-77
2022/02/01 00:46:21;;;;;;;170.38;75.30;;;;;;;3.53;51.21;93801.91;4952675;28;20142;-77
2022/02/01 00:48:46;;;;;;;173.15;78.88;;;;;;;3.57;51.60;93790.22;4952698;28;20026;-77
2022/02/01 00:51:13;;;;;;;138.68;62.03;;;;;;;3.54;51.30;93788.06;4952902;28;20046;-77
2022/02/01 00:53:40;;;;;;;112.45;48.35;;;;;;;3.53;49.57;93789.06;4953464;28;20438;-77
2022/02/01 00:56:06;;;;;;;112.82;48.65;;;;;;;3.60;49.95;93781.31;4977446;28;20117;-77
2022/02/01 00:58:31;;;;;;;144.18;63.08;;;;;;;3.60;50.84;93779.53;4966499;28;20371;-77
2022/02/01 01:00:56;;;;;;;146.95;64.13;;;;;;;3.64;50.72;93776.53;4966010;28;20491;-77
2022/02/01 01:03:22;;;;;;;149.10;63.13;;;;;;;3.69;50.90;93776.66;4970444;28;20095;-76
2022/02/01 01:05:48;;;;;;;120.10;57.15;;;;;;;3.71;50.27;93772.06;4972921;28;20112;-77
2022/02/01 01:08:13;;;;;;;121.03;54.90;;;;;;;3.71;50.58;93774.66;4972966;28;20447;-77
2022/02/01 01:10:40;;;;;;;122.07;53.90;;;;;;;3.64;50.68;93763.66;4991769;28;20042;-77
2022/02/01 01:16:22;;;;;;;147.98;73.05;;;;;;;3.63;51.25;93762.88;4984710;28;20121;-78
2022/02/01 01:54:06;;;;;;;127.85;56.15;;;;;;;3.56;51.55;93731.31;4981758;28;20402;-77
2022/02/01 01:56:32;;;;;;;84.53;36.33;;;;;;;3.50;50.01;93729.59;4946772;28;20476;-77
2022/02/01 01:59:01;;;;;;;102.05;45.90;;;;;;;3.51;50.25;93721.69;4972848;28;20026;-77
2022/02/01 02:01:29;;;;;;;104.93;43.00;;;;;;;3.50;50.17;93717.53;4964236;28;20066;-77
2022/02/01 02:03:55;;;;;;;92.00;40.53;;;;;;;3.60;49.95;93722.97;4973045;28;20045;-77
2022/02/01 02:06:20;;;;;;;106.10;44.55;;;;;;;3.69;49.41;93713.16;4946357;28;20446;-77
2022/02/01 02:08:48;;;;;;;107.82;51.00;;;;;;;3.74;49.88;93717.66;4982906;28;20041;-77
2022/02/01 02:11:20;;;;;;;129.43;55.08;;;;;;;3.74;50.23;93721.03;4964947;28;20035;-77
2022/02/01 02:17:02;;;;;;;121.38;50.47;;;;;;;3.76;50.09;93729.31;4899167;29;20049;-77
2022/02/01 02:19:29;;;;;;;117.38;49.88;;;;;;;3.74;50.29;93727.94;4893483;29;20136;-77
2022/02/01 02:21:55;;;;;;;103.07;44.33;;;;;;;3.66;50.75;93718.75;4919911;28;20046;-77
2022/02/01 02:24:22;;;;;;;99.50;42.65;;;;;;;3.63;50.79;93716.59;4944365;28;20038;-77
2022/02/01 02:26:51;;;;;;;96.90;44.08;;;;;;;3.45;50.64;93709.69;4965387;28;20042;-76
2022/02/01 02:29:17;;;;;;;98.90;42.50;;;;;;;3.20;51.84;93712.31;4950461;28;20038;-76
2022/02/01 02:31:42;;;;;;;89.07;39.03;;;;;;;3.23;51.63;93711.09;4956623;28;20097;-77
2022/02/01 02:34:12;;;;;;;86.75;37.55;;;;;;;3.30;51.14;93712.63;4959956;28;20042;-77
2022/02/01 02:36:44;;;;;;;86.07;37.58;;;;;;;3.31;51.00;93713.41;4980299;28;20106;-77
2022/02/01 02:39:22;;;;;;;109.25;45.38;;;;;;;3.37;51.70;93714.31;4949559;28;20034;-78
2022/02/01 02:41:52;;;;;;;98.82;44.10;;;;;;;3.27;52.01;93713.06;4965545;28;20027;-77
2022/02/01 02:47:08;;;;;;;90.10;40.88;;;;;;;3.40;51.32;93717.25;4944318;23;20049;-77
2022/02/01 02:49:33;;;;;;;88.57;40.92;;;;;;;3.48;50.85;93713.63;4947879;29;20047;-77
2022/02/01 02:51:59;;;;;;;88.22;41.15;;;;;;;3.45;50.78;93714.84;4943670;29;20111;-77
2022/02/01 02:54:25;;;;;;;100.30;43.05;;;;;;;3.46;50.91;93713.84;4942581;29;20039;-77
2022/02/01 02:56:59;;;;;;;100.47;44.33;;;;;;;3.44;51.32;93705.56;4940460;29;20035;-77
2022/02/01 02:59:25;;;;;;;108.70;44.80;;;;;;;3.44;50.80;93709.91;4999729;23;20489;-77
2022/02/01 03:01:51;;;;;;;106.28;45.75;;;;;;;3.41;51.49;93702.59;4976506;28;20045;-77
2022/02/01 03:04:21;;;;;;;98.10;44.38;;;;;;;3.29;51.92;93700.00;4989272;28;20259;-78
2022/02/01 03:06:47;;;;;;;93.28;44.05;;;;;;;3.32;52.29;93699.56;4984058;28;20035;-77
2022/02/01 03:09:12;;;;;;;106.15;45.33;;;;;;;3.21;52.12;93707.97;4944818;28;20119;-77
2022/02/01 03:11:55;;;;;;;96.15;45.47;;;;;;;3.20;52.27;93706.41;4984275;28;20079;-76
2022/02/01 03:14:25;;;;;;;106.10;44.88;;;;;;;3.21;52.58;93718.25;4981658;28;20523;-77
2022/02/01 03:22:10;;;;;;;87.57;41.83;;;;;;;2.92;53.13;93694.81;4966957;28;20053;-77
2022/02/01 03:24:35;;;;;;;90.22;42.15;;;;;;;2.93;53.39;93688.69;4963408;28;20069;-77
2022/02/01 03:27:01;;;;;;;93.88;39.83;;;;;;;2.93;53.46;93686.13;4960212;28;20097;-77
2022/02/01 03:29:27;;;;;;;90.88;37.55;;;;;;;2.96;53.10;93680.56;4959527;28;20046;-78
2022/02/01 03:31:52;;;;;;;83.80;38.03;;;;;;;2.96;53.45;93674.63;4983772;28;20049;-77
2022/02/01 03:34:18;;;;;;;100.50;41.88;;;;;;;3.04;53.46;93671.78;4993859;28;20048;-77
2022/02/01 03:36:44;;;;;;;98.10;40.15;;;;;;;3.04;53.75;93676.13;4988337;28;20035;-77
2022/02/01 03:39:11;;;;;;;90.53;40.15;;;;;;;3.05;53.65;93677.69;4947924;28;20495;-76
2022/02/01 03:41:36;;;;;;;101.38;40.28;;;;;;;3.07;54.01;93671.34;4977933;28;20670;-77
2022/02/01 03:44:04;;;;;;;92.18;41.67;;;;;;;3.13;54.94;93669.72;4962352;28;20044;-76
2022/02/01 03:46:29;;;;;;;92.75;41.78;;;;;;;3.14;54.25;93676.44;4977746;28;20470;-76
2022/02/01 03:48:55;;;;;;;95.88;42.53;;;;;;;3.11;54.17;93667.38;4977152;28;20042;-76
2022/02/01 03:51:20;;;;;;;91.63;41.22;;;;;;;3.10;53.87;93660.69;4944921;28;20039;-76
2022/02/01 03:53:46;;;;;;;84.90;38.75;;;;;;;3.13;54.00;93659.47;4968312;28;20038;-75
2022/02/01 03:56:11;;;;;;;75.82;33.95;;;;;;;3.09;54.12;93648.84;4959819;28;20062;-76
2022/02/01 03:58:36;;;;;;;76.70;32.70;;;;;;;3.18;53.15;93657.81;4967321;28;20062;-77
2022/02/01 04:01:02;;;;;;;74.63;34.58;;;;;;;3.25;52.91;93647.44;4974252;28;20494;-76
2022/02/01 04:03:27;;;;;;;74.68;34.03;;;;;;;3.21;52.80;93643.75;4983219;28;20100;-77
2022/02/01 04:05:53;;;;;;;76.60;35.88;;;;;;;3.28;52.45;93652.19;4940563;28;20495;-77
2022/02/01 04:08:19;;;;;;;82.70;39.08;;;;;;;3.18;53.31;93644.97;4976240;28;20035;-77
2022/02/01 04:10:47;;;;;;;88.93;38.65;;;;;;;3.20;53.89;93647.31;4977649;28;20106;-77
2022/02/01 04:13:13;;;;;;;121.85;52.88;;;;;;;3.18;54.29;93644.19;4980457;28;20111;-77
2022/02/01 04:15:38;;;;;;;158.98;74.05;;;;;;;3.24;53.58;93648.44;4980954;28;20043;-77
2022/02/01 04:18:04;;;;;;;150.38;70.07;;;;;;;3.14;53.74;93640.47;4977678;28;20039;-77
2022/02/01 04:20:30;;;;;;;128.80;61.55;;;;;;;3.11;53.80;93651.19;4943978;28;20041;-77
2022/02/01 04:22:55;;;;;;;103.50;42.92;;;;;;;3.23;52.79;93660.50;4967082;28;20503;-77
2022/02/01 04:25:21;;;;;;;98.80;43.65;;;;;;;3.20;52.60;93650.66;4959779;28;20086;-76
2022/02/01 04:30:17;;;;;;;94.85;42.85;;;;;;;3.25;52.43;93647.44;5020203;23;20525;-77
2022/02/01 04:32:46;;;;;;;88.82;38.78;;;;;;;3.29;51.75;93643.47;5002989;28;20050;-77
2022/02/01 04:35:13;;;;;;;85.80;39.63;;;;;;;3.25;52.16;93642.31;5002645;28;20682;-77
2022/02/01 04:37:39;;;;;;;99.75;42.40;;;;;;;3.27;52.26;93645.47;4985985;28;20065;-77
2022/02/01 04:40:05;;;;;;;67.97;30.48;;;;;;;3.37;50.46;93644.94;4970009;28;20065;-77
2022/02/01 04:42:35;;;;;;;62.38;28.00;;;;;;;3.40;49.64;93637.59;4977335;28;20034;-77
2022/02/01 04:45:00;;;;;;;63.70;28.80;;;;;;;3.42;50.27;93640.75;4993398;28;20091;-76
2022/02/01 04:47:31;;;;;;;73.20;30.05;;;;;;;3.43;50.62;93639.75;4977085;28;20034;-77
2022/02/01 04:49:56;;;;;;;75.18;32.78;;;;;;;3.45;50.87;93642.09;4975482;28;20034;-77
2022/02/01 04:52:22;;;;;;;90.53;34.88;;;;;;;3.43;51.25;93639.75;4999626;28;20041;-77
2022/02/01 04:54:47;;;;;;;79.80;35.08;;;;;;;3.41;51.27;93646.88;5003047;28;20046;-77
2022/02/01 04:57:13;;;;;;;74.85;30.63;;;;;;;3.41;51.05;93646.06;5002043;28;20026;-77
2022/02/01 04:59:38;;;;;;;65.10;27.52;;;;;;;3.39;50.68;93659.16;5002414;28;20038;-77
2022/02/01 05:02:04;;;;;;;59.17;28.70;;;;;;;3.44;50.38;93650.81;4992885;28;20033;-77
2022/02/01 05:04:29;;;;;;;77.75;34.83;;;;;;;3.40;51.51;93653.00;4984929;28;20516;-77
2022/02/01 05:06:55;;;;;;;86.80;38.42;;;;;;;3.39;53.19;93666.84;4983926;28;20030;-77
2022/02/01 05:11:51;;;;;;;86.35;40.83;;;;;;;3.48;52.76;93663.00;4987597;23;20081;-76
2022/02/01 05:14:23;;;;;;;123.30;52.97;;;;;;;3.46;53.01;93657.31;4963849;28;20174;-76
2022/02/01 05:19:35;;;;;;;135.10;59.38;;;;;;;3.36;53.23;93669.84;4932095;28;20047;-76
2022/02/01 05:22:04;;;;;;;131.70;68.78;;;;;;;3.34;53.42;93682.13;4954738;28;20067;-77
2022/02/01 05:24:32;;;;;;;172.15;85.88;;;;;;;3.23;54.24;93677.69;4953795;28;20053;-77
2022/02/01 05:26:58;;;;;;;156.85;79.07;;;;;;;3.31;54.03;93685.16;4928186;28;20140;-76
2022/02/01 05:29:49;;;;;;;152.63;78.90;;;;;;;3.33;52.90;93690.06;4961592;28;20050;-76
2022/02/01 05:32:32;;;;;;;171.32;87.90;;;;;;;3.27;52.85;93696.84;4931471;29;20039;-78
2022/02/01 05:34:57;;;;;;;203.27;104.28;;;;;;;3.28;53.20;93688.94;4934154;29;20037;-78
2022/02/01 05:37:23;;;;;;;190.55;95.70;;;;;;;3.26;53.61;93685.00;4932194;29;20427;-78
2022/02/01 05:39:49;;;;;;;171.40;94.30;;;;;;;3.30;53.87;93688.72;4934814;29;20066;-77
2022/02/01 05:42:18;;;;;;;120.75;56.30;;;;;;;3.39;52.25;93689.97;4931596;29;20036;-76
2022/02/01 05:44:44;;;;;;;91.13;44.60;;;;;;;3.45;51.36;93698.63;4934667;29;20427;-77
2022/02/01 05:47:09;;;;;;;111.22;52.45;;;;;;;3.42;51.79;93696.50;4933667;29;20040;-76
2022/02/01 05:49:35;;;;;;;65.00;32.55;;;;;;;3.38;50.45;93703.81;4916744;29;20126;-76
2022/02/01 05:52:01;;;;;;;60.78;30.83;;;;;;;3.36;50.87;93705.84;4933413;29;20039;-77
2022/02/01 05:54:28;;;;;;;61.55;30.27;;;;;;;3.30;51.08;93711.84;4932416;29;20047;-76
2022/02/01 05:56:54;;;;;;;57.10;22.73;;;;;;;3.43;49.89;93716.84;5021347;23;20125;-76
2022/02/01 05:59:20;;;;;;;157.77;57.63;;;;;;;3.40;50.16;93717.25;4971184;28;20049;-76
2022/02/01 06:01:45;;;;;;;111.22;44.42;;;;;;;3.37;50.70;93717.69;4981620;28;20453;-76
2022/02/01 06:04:10;;;;;;;317.08;131.60;;;;;;;3.32;50.71;93717.53;4963908;28;20063;-76
2022/02/01 06:06:36;;;;;;;421.60;191.82;;;;;;;3.37;50.49;93715.09;4965744;28;20086;-76
2022/02/01 06:09:01;;;;;;;389.73;172.65;;;;;;;3.41;50.79;93718.81;4982071;28;20379;-76
2022/02/01 06:11:27;;;;;;;350.75;154.15;;;;;;;3.40;50.55;93731.88;4982236;28;20038;-77
2022/02/01 06:13:52;;;;;;;335.58;150.93;;;;;;;3.34;50.40;93737.88;4949110;28;20038;-77
2022/02/01 06:16:18;;;;;;;234.98;113.80;;;;;;;3.40;50.16;93755.78;4948527;28;20034;-77
2022/02/01 06:18:43;;;;;;;191.40;85.93;;;;;;;3.34;49.68;93758.44;4981544;28;20085;-76
2022/02/01 06:21:09;;;;;;;206.23;90.03;;;;;;;3.34;50.27;93769.50;4964610;28;20038;-77
2022/02/01 06:23:34;;;;;;;179.93;75.15;;;;;;;3.45;49.65;93776.50;4980006;28;20085;-77
2022/02/01 06:26:00;;;;;;;125.20;47.47;;;;;;;3.47;49.26;93787.34;4961968;28;20035;-77
2022/02/01 06:28:26;;;;;;;221.95;81.78;;;;;;;3.52;49.44;93787.50;4964561;28;20037;-77
2022/02/01 06:33:24;;;;;;;133.00;56.53;;;;;;;3.51;49.06;93785.16;4994583;23;20058;-78
2022/02/01 06:35:50;;;;;;;108.53;50.45;;;;;;;3.64;50.95;93789.38;4988158;28;20577;-77
2022/02/01 06:38:15;;;;;;;121.95;52.88;;;;;;;3.73;49.39;93798.34;4966216;28;20058;-77
2022/02/01 06:40:41;;;;;;;96.15;37.85;;;;;;;3.73;48.20;93798.34;4987486;28;20061;-77
2022/02/01 06:43:07;;;;;;;81.28;40.40;;;;;;;3.75;48.87;93806.66;4981859;28;20500;-77
2022/02/01 06:45:33;;;;;;;90.90;43.00;;;;;;;3.77;49.24;93812.38;4981694;28;20038;-76
2022/02/01 06:47:59;;;;;;;58.88;27.85;;;;;;;3.75;48.75;93807.44;4998247;28;20046;-78
2022/02/01 06:50:24;;;;;;;65.35;25.67;;;;;;;3.71;48.67;93805.50;4982192;28;20635;-78
2022/02/01 06:52:59;;;;;;;63.88;25.13;;;;;;;3.69;48.94;93812.66;4984981;28;20042;-78
2022/02/01 06:55:44;;;;;;;61.53;25.45;;;;;;;3.60;48.70;93805.22;4983052;28;20129;-79
2022/02/01 06:58:14;;;;;;;55.55;25.30;;;;;;;3.40;49.71;93814.88;4951073;28;20035;-78
2022/02/01 07:00:40;;;;;;;56.97;26.40;;;;;;;3.14;50.19;93810.00;4996572;28;20042;-77
2022/02/01 07:03:17;;;;;;;73.00;29.67;;;;;;;2.91;51.11;93816.47;4987246;28;20042;-78
2022/02/01 07:05:42;;;;;;;73.70;30.05;;;;;;;2.99;51.00;93813.66;4941379;29;20058;-77
2022/02/01 07:08:08;;;;;;;79.50;32.13;;;;;;;3.05;52.00;93826.66;4970876;28;20039;-77
2022/02/01 07:10:34;;;;;;;89.57;40.35;;;;;;;3.22;51.96;93832.84;4952882;28;20043;-77
2022/02/01 07:12:59;;;;;;;96.85;48.05;;;;;;;3.36;51.32;93829.16;4971595;28;20066;-77
2022/02/01 07:15:25;;;;;;;96.30;45.83;;;;;;;3.49;50.36;93834.19;4971598;28;20043;-77
2022/02/01 07:17:51;;;;;;;106.88;48.63;;;;;;;3.65;50.12;93837.22;4971327;28;20031;-77
2022/02/01 07:20:17;;;;;;;121.45;56.88;;;;;;;3.74;49.72;93835.91;4938135;28;20505;-77
2022/02/01 07:22:45;;;;;;;97.30;43.55;;;;;;;3.82;49.53;93846.72;4922003;28;20113;-77
2022/02/01 07:25:23;;;;;;;93.57;40.42;;;;;;;3.89;49.57;93849.22;4925327;28;20057;-78
2022/02/01 07:27:52;;;;;;;78.78;38.63;;;;;;;3.98;48.95;93853.09;4934714;28;20043;-77
2022/02/01 07:30:19;;;;;;;82.60;38.72;;;;;;;4.09;48.32;93854.16;4970994;28;20047;-77
2022/02/01 07:32:45;;;;;;;68.35;32.17;;;;;;;4.19;48.15;93850.06;4970986;28;20042;-77
2022/02/01 07:35:10;;;;;;;65.72;31.67;;;;;;;4.25;48.60;93843.28;4937315;28;20031;-77
2022/02/01 07:37:36;;;;;;;66.00;35.38;;;;;;;4.36;47.80;93852.06;4970922;28;20050;-77
2022/02/01 07:40:03;;;;;;;73.53;35.40;;;;;;;4.49;46.86;93857.06;4971089;28;20049;-77
2022/02/01 07:42:28;;;;;;;91.18;45.47;;;;;;;4.56;46.46;93855.19;4952542;28;20030;-77
2022/02/01 07:44:58;;;;;;;70.30;35.17;;;;;;;4.63;47.13;93865.41;4971131;28;20390;-77
2022/02/01 07:47:24;;;;;;;66.25;30.40;;;;;;;4.75;46.40;93861.09;4971202;28;20513;-77
2022/02/01 07:49:49;;;;;;;63.88;28.88;;;;;;;4.71;45.84;93865.84;4970983;28;20030;-77
2022/02/01 07:52:15;;;;;;;61.53;29.00;;;;;;;4.83;45.48;93856.38;4938474;28;20035;-79
2022/02/01 07:54:41;;;;;;;68.53;30.95;;;;;;;4.89;45.28;93857.31;4984719;28;20030;-78
2022/02/01 07:57:06;;;;;;;70.32;32.00;;;;;;;4.91;45.83;93868.19;4990347;28;20034;-78
2022/02/01 07:59:33;;;;;;;76.88;38.53;;;;;;;4.95;45.96;93868.53;4953009;28;20031;-78
2022/02/01 08:01:58;;;;;;;84.32;39.17;;;;;;;4.98;45.49;93868.09;4954317;28;20035;-78
2022/02/01 08:04:26;;;;;;;72.72;38.05;;;;;;;5.03;45.65;93873.34;4972104;28;20069;-78
2022/02/01 08:06:52;;;;;;;94.07;37.28;;;;;;;5.10;45.33;93872.28;4971587;28;21602;-78
2022/02/01 08:09:25;;;;;;;61.60;27.35;;;;;;;5.04;44.92;93869.78;4954368;28;20035;-78
2022/02/01 08:11:50;;;;;;;48.88;24.77;;;;;;;5.03;45.45;93861.25;4943007;28;20227;-79
2022/02/01 08:17:06;;;;;;;47.83;22.58;;;;;;;5.23;44.47;93860.97;4961090;28;20042;-80
2022/02/01 08:19:53;;;;;;;61.08;23.38;;;;;;;5.25;44.83;93869.28;4942806;28;20042;-79
2022/02/01 08:25:03;;;;;;;47.60;22.73;;;;;;;5.31;43.54;93872.75;4976227;28;20486;-79
2022/02/01 08:27:30;;;;;;;55.25;24.88;;;;;;;5.26;44.09;93860.53;4975615;28;20035;-79
2022/02/01 08:29:55;;;;;;;49.20;25.42;;;;;;;5.25;44.30;93858.97;4957359;28;20573;-79
2022/02/01 08:32:21;;;;;;;60.97;27.45;;;;;;;5.23;44.43;93868.72;4925206;28;20023;-79
2022/02/01 08:34:47;;;;;;;67.78;27.40;;;;;;;5.29;44.26;93874.75;4945969;28;20038;-79
2022/02/01 08:37:12;;;;;;;56.00;28.30;;;;;;;5.35;43.64;93864.34;4959431;28;20055;-79
2022/02/01 08:39:37;;;;;;;75.30;30.52;;;;;;;5.37;44.09;93862.34;4976661;28;20027;-79
2022/02/01 08:42:03;;;;;;;67.22;29.60;;;;;;;5.25;44.23;93858.97;4956838;28;20023;-79
2022/02/01 08:44:30;;;;;;;72.45;33.78;;;;;;;5.13;44.45;93865.88;4974781;28;20142;-79
2022/02/01 08:46:55;;;;;;;79.35;36.33;;;;;;;5.09;45.26;93868.13;4959675;28;20426;-79
2022/02/01 08:49:21;;;;;;;78.72;32.55;;;;;;;5.04;44.64;93862.84;4942466;28;20031;-81
2022/02/01 08:51:56;;;;;;;65.20;32.08;;;;;;;5.11;44.84;93863.53;4942509;28;20492;-80
2022/02/01 08:54:25;;;;;;;69.22;31.05;;;;;;;5.30;43.79;93856.50;4959052;28;20035;-79
2022/02/01 09:02:25;;;;;;;70.10;28.33;;;;;;;5.37;43.02;93851.25;5222912;22;20074;-79
2022/02/01 09:04:50;;;;;;;57.13;27.98;;;;;;;5.43;42.64;93851.13;4959571;28;20562;-80
2022/02/01 09:07:16;;;;;;;62.65;30.35;;;;;;;5.21;43.52;93850.13;4966613;28;20042;-80
2022/02/01 09:09:41;;;;;;;68.85;30.33;;;;;;;5.19;43.99;93843.59;4928880;29;20032;-79
2022/02/01 09:12:07;;;;;;;72.20;30.23;;;;;;;5.21;43.59;93842.38;4947263;29;20035;-79
2022/02/01 09:14:33;;;;;;;62.97;29.75;;;;;;;5.31;43.53;93845.19;4919435;29;20471;-79
2022/02/01 09:17:00;;;;;;;57.50;24.75;;;;;;;5.33;42.66;93853.47;4915976;29;20031;-79
2022/02/01 09:19:29;;;;;;;54.30;27.13;;;;;;;5.46;42.84;93852.47;4948639;28;20126;-79
2022/02/01 09:21:56;;;;;;;67.40;28.50;;;;;;;5.64;42.73;93852.38;4939045;29;20518;-79
2022/02/01 09:24:22;;;;;;;53.22;21.85;;;;;;;5.77;41.80;93853.16;4964135;28;20027;-79
2022/02/01 09:26:48;;;;;;;45.58;21.20;;;;;;;5.84;40.35;93857.19;4951380;28;20035;-79
2022/02/01 09:29:13;;;;;;;65.55;21.65;;;;;;;5.97;39.77;93846.66;4926265;28;20045;-78
2022/02/01 09:31:39;;;;;;;39.08;20.50;;;;;;;6.02;40.33;93848.59;4948838;28;20386;-76
2022/02/01 09:34:05;;;;;;;48.67;20.77;;;;;;;5.99;40.72;93844.63;4944407;29;20122;-78
2022/02/01 09:36:31;;;;;;;52.38;21.00;;;;;;;6.19;40.59;93853.81;4939082;28;20517;-78
2022/02/01 09:38:56;;;;;;;51.70;23.30;;;;;;;6.37;40.12;93856.25;4966658;28;20043;-76
2022/02/01 09:41:25;;;;;;;68.15;23.13;;;;;;;6.39;39.81;93856.81;4953861;28;20114;-76
2022/02/01 09:43:52;;;;;;;56.33;22.45;;;;;;;6.43;39.31;93851.97;4917697;29;20027;-77
2022/02/01 09:46:17;;;;;;;61.15;23.42;;;;;;;6.47;39.13;93845.31;4917047;28;20043;-77
2022/02/01 09:48:43;;;;;;;46.50;20.42;;;;;;;6.56;38.41;93846.53;4931984;29;20087;-77
2022/02/01 09:51:08;;;;;;;41.70;17.77;;;;;;;6.71;37.90;93846.81;4958762;28;20042;-78
2022/02/01 09:53:35;;;;;;;38.30;16.98;;;;;;;6.75;37.74;93854.88;4932836;29;20484;-77
2022/02/01 09:56:00;;;;;;;35.13;17.38;;;;;;;6.82;36.75;93852.94;4954543;28;20043;-78
2022/02/01 09:58:33;;;;;;;39.50;15.63;;;;;;;6.96;36.54;93853.44;4957270;28;20039;-78
2022/02/01 10:01:01;;;;;;;48.30;15.82;;;;;;;6.98;36.43;93854.75;4955304;28;21050;-79
2022/02/01 10:03:27;;;;;;;31.00;14.82;;;;;;;6.99;36.29;93842.63;4929576;28;20079;-77
2022/02/01 10:06:06;;;;;;;39.55;15.57;;;;;;;6.80;36.16;93845.41;4963697;28;20443;-78
2022/02/01 10:08:32;;;;;;;54.15;16.73;;;;;;;6.80;35.74;93837.66;4913825;29;20062;-78
2022/02/01 10:10:58;;;;;;;33.70;15.95;;;;;;;6.85;36.22;93832.59;4950161;29;20059;-76
2022/02/01 10:13:23;;;;;;;41.25;15.35;;;;;;;6.94;36.20;93835.56;4934500;29;20067;-76
2022/02/01 10:18:35;;;;;;;32.35;13.63;;;;;;;6.75;34.96;93836.78;4928374;29;20047;-77
2022/02/01 10:21:11;;;;;;;31.90;14.07;;;;;;;6.76;35.66;93822.84;4914657;28;20093;-76
2022/02/01 10:23:38;;;;;;;32.85;14.52;;;;;;;6.86;35.23;93828.22;4929861;28;20039;-76
2022/02/01 10:26:11;;;;;;;47.53;14.02;;;;;;;6.95;35.66;93816.47;4926485;28;20499;-76
2022/02/01 10:29:00;;;;;;;37.22;12.15;;;;;;;7.04;34.53;93819.47;4950630;29;20256;-76
2022/02/01 10:34:27;;;;;;;38.85;12.45;;;;;;;7.26;34.80;93822.13;4926839;29;20047;-77
2022/02/01 10:36:53;;;;;;;31.50;11.55;;;;;;;7.34;33.96;93826.91;4943054;28;20496;-76
2022/02/01 10:39:21;;;;;;;23.52;10.95;;;;;;;7.35;33.73;93826.69;4944551;28;20057;-76
2022/02/01 10:42:05;;;;;;;47.08;13.70;;;;;;;7.37;33.87;93832.41;4935294;29;20384;-77
2022/02/01 10:44:41;;;;;;;29.33;14.10;;;;;;;7.36;33.65;93820.50;4939282;29;20126;-76
2022/02/01 10:47:08;;;;;;;42.90;15.75;;;;;;;7.41;33.62;93827.53;4934750;29;20428;-77
2022/02/01 10:49:33;;;;;;;31.70;14.15;;;;;;;7.51;32.95;93830.28;4946642;23;20070;-76
2022/02/01 10:52:06;;;;;;;34.55;13.43;;;;;;;7.52;33.29;93826.69;4998429;28;20058;-75
2022/02/01 10:54:33;;;;;;;25.23;11.57;;;;;;;7.62;32.54;93831.97;4994934;28;20481;-75
2022/02/01 10:56:59;;;;;;;23.27;9.57;;;;;;;7.27;32.40;93834.81;4986902;28;20030;-75
2022/02/01 10:59:25;;;;;;;16.80;9.32;;;;;;;7.06;32.30;93833.72;5004538;28;20061;-76
2022/02/01 11:01:55;;;;;;;27.15;9.90;;;;;;;6.76;33.17;93839.13;5001033;28;20105;-78
2022/02/01 11:04:21;;;;;;;35.38;10.75;;;;;;;6.43;34.14;93839.81;5002037;28;20026;-78
2022/02/01 11:06:53;;;;;;;34.35;12.95;;;;;;;6.44;34.19;93846.56;4982559;28;20038;-78
2022/02/01 11:09:23;;;;;;;22.38;12.05;;;;;;;6.57;33.90;93841.13;4998290;28;20481;-77
2022/02/01 11:11:56;;;;;;;26.55;10.43;;;;;;;6.48;34.14;93839.91;5001003;28;20034;-77
2022/02/01 11:14:22;;;;;;;;;;;;;;;6.36;35.35;93831.44;5016402;28;20116;-79
2022/02/01 11:16:47;;;;;;;26.20;10.02;;;;;;;6.47;35.73;93828.00;5022619;28;19923;-79
2022/02/01 11:19:13;;;;;;;24.77;10.77;;;;;;;6.59;35.49;93828.75;5021467;28;20029;-79
2022/02/01 11:21:53;;;;;;;20.05;9.50;;;;;;;6.79;34.82;93817.22;5003494;28;20021;-79
2022/02/01 11:24:44;;;;;;;19.98;9.25;;;;;;;6.75;34.36;93831.63;5005904;28;20040;-79
2022/02/01 11:27:16;;;;;;;19.05;8.95;;;;;;;6.76;34.94;93817.69;5002830;28;20080;-78
2022/02/01 11:32:33;;;;;;;18.80;6.65;;;;;;;6.88;35.52;93811.44;5005733;28;20484;-79
2022/02/01 11:35:23;;;;;;;23.30;8.32;;;;;;;6.83;36.66;93816.53;4981815;28;20098;-79
2022/02/01 11:38:00;;;;;;;21.60;8.23;;;;;;;6.67;35.76;93816.47;4992966;28;20042;-79
2022/02/01 11:40:25;;;;;;;18.42;8.70;;;;;;;6.38;36.15;93832.00;4988909;28;20622;-78
2022/02/01 11:42:59;;;;;;;19.15;5.80;;;;;;;6.38;36.63;93826.84;4992690;28;20037;-78
2022/02/01 11:45:35;;;;;;;16.77;7.95;;;;;;;5.94;37.64;93833.44;5009449;28;20037;-78
2022/02/01 11:48:03;;;;;;;24.20;8.80;;;;;;;5.68;37.30;93817.38;5008604;28;20077;-78
2022/02/01 11:50:28;;;;;;;32.25;13.05;;;;;;;5.35;39.77;93838.56;5042052;23;20042;-78
2022/02/01 11:52:56;;;;;;;32.30;13.68;;;;;;;5.26;41.06;93829.59;5026180;28;20033;-78
2022/02/01 11:55:25;;;;;;;38.45;12.18;;;;;;;5.26;39.95;93834.75;4999330;28;20478;-78
2022/02/01 11:57:52;;;;;;;24.40;9.07;;;;;;;5.14;39.97;93846.84;5017735;28;20558;-78
2022/02/01 12:00:23;;;;;;;19.73;9.57;;;;;;;5.07;40.90;93857.25;5039216;23;20132;-78
2022/02/01 12:02:50;;;;;;;19.10;9.10;;;;;;;5.14;40.62;93854.56;4990971;23;20050;-78
2022/02/01 12:05:39;;;;;;;13.30;6.72;;;;;;;5.13;40.38;93855.56;5000521;23;20057;-78
2022/02/01 12:08:14;;;;;;;8.57;5.82;;;;;;;5.28;39.57;93858.50;5017769;23;20052;-78
2022/02/01 12:10:43;;;;;;;17.23;7.18;;;;;;;5.20;39.94;93855.47;4955891;28;20151;-78
2022/02/01 12:13:09;;;;;;;14.27;6.55;;;;;;;5.14;40.62;93846.84;5072449;23;20914;-78
2022/02/01 12:15:40;;;;;;;17.60;6.47;;;;;;;5.30;41.64;93845.41;4993730;28;20046;-78
2022/02/01 12:18:12;;;;;;;12.48;6.13;;;;;;;5.29;41.43;93852.34;4977051;28;20502;-78
2022/02/01 12:20:38;;;;;;;17.00;6.80;;;;;;;5.38;41.66;93856.19;4962412;28;20065;-78
2022/02/01 12:23:23;;;;;;;14.63;6.85;;;;;;;5.22;42.17;93863.78;4977287;28;20105;-78
2022/02/01 12:25:49;;;;;;;16.05;6.22;;;;;;;5.20;43.46;93860.63;4977124;28;20031;-79
2022/02/01 12:28:17;;;;;;;16.30;6.00;;;;;;;5.10;44.12;93867.13;4960432;28;20060;-78
2022/02/01 12:30:42;;;;;;;12.52;5.85;;;;;;;5.05;44.36;93861.06;4974220;28;20058;-78
2022/02/01 12:33:15;;;;;;;24.92;5.55;;;;;;;5.20;44.56;93881.22;4990454;28;20030;-77
2022/02/01 12:35:42;;;;;;;15.20;4.60;;;;;;;5.21;43.96;93880.25;4972487;28;20034;-77
2022/02/01 12:38:12;;;;;;;15.13;5.85;;;;;;;5.19;44.96;93877.09;4956371;28;20478;-76
2022/02/01 12:40:38;;;;;;;10.23;6.22;;;;;;;5.08;45.17;93888.97;4952472;28;20477;-76
2022/02/01 12:43:10;;;;;;;11.30;6.15;;;;;;;5.04;45.05;93885.22;4990829;28;20089;-78
2022/02/01 12:48:10;;;;;;;10.80;6.03;;;;;;;5.16;45.60;93906.66;4959218;28;20105;-78
2022/02/01 12:50:35;;;;;;;12.05;5.90;;;;;;;5.22;45.38;93903.22;4974431;28;20449;-77
2022/02/01 12:53:02;;;;;;;12.15;5.47;;;;;;;5.28;46.02;93919.59;4943864;28;20043;-77
2022/02/01 12:55:28;;;;;;;16.30;5.70;;;;;;;5.26;45.91;93917.25;4943515;28;20126;-76
2022/02/01 12:58:04;;;;;;;14.00;5.55;;;;;;;5.24;46.03;93918.47;4992832;28;20055;-77
2022/02/01 13:00:29;;;;;;;12.52;5.85;;;;;;;5.23;47.59;93928.00;4967697;28;20490;-76
2022/02/01 13:02:55;;;;;;;10.32;5.25;;;;;;;4.97;48.06;93923.19;4974939;28;20173;-76
2022/02/01 13:05:21;;;;;;;16.65;6.07;;;;;;;5.01;49.04;93926.91;4989627;28;20045;-75
2022/02/01 13:16:15;;;;;;;13.68;5.75;;;;;;;4.74;51.43;93940.13;4977587;28;20630;-76
2022/02/01 13:21:05;;;;;;;12.32;6.03;;;;;;;4.64;53.06;93954.50;4975601;28;20515;-77
2022/02/01 13:23:43;;;;;;;21.10;6.50;;;;;;;4.62;53.86;93952.16;4976046;28;20030;-78
2022/02/01 13:26:10;;;;;;;16.23;6.60;;;;;;;4.55;54.56;93964.28;4976379;28;20030;-77
2022/02/01 13:28:35;;;;;;;18.35;6.57;;;;;;;4.56;54.75;93968.47;4975533;28;20161;-77
2022/02/01 13:31:07;;;;;;;13.30;6.50;;;;;;;4.47;56.01;93974.91;4975334;28;20418;-77
2022/02/01 13:33:32;;;;;;;16.30;7.53;;;;;;;4.44;56.81;93977.91;4941860;28;20030;-77